sensor_id;sensor_type;location;lat;lon;timestamp;P1;durP1;ratioP1;P2;durP2;ratioP2
16133;SDS011;8172;45.018;5.972;2023-02-28T00:00:37;14.37;;;10.10;;
16133;SDS011;8172;45.018;5.972;2023-02-28T00:05:44;16.30;;;10.43;;
16133;SDS011;8172;45.018;5.972;2023-02-28T00:10:51;11.73;;;8.97;;
16133;SDS011;8172;45.018;5.972;2023-02-28T00:15:59;14.33;;;10.13;;
16133;SDS011;8172;45.018;5.972;2023-02-28T00:21:07;14.50;;;10.50;;
16133;SDS011;8172;45.018;5.972;2023-02-28T00:26:14;14.37;;;10.07;;
16133;SDS011;8172;45.018;5.972;2023-02-28T00:31:23;13.53;;;10.23;;
16133;SDS011;8172;45.018;5.972;2023-02-28T00:36:30;15.43;;;10.10;;
16133;SDS011;8172;45.018;5.972;2023-02-28T00:41:39;17.90;;;11.40;;
16133;SDS011;8172;45.018;5.972;2023-02-28T00:46:47;13.53;;;9.53;;
16133;SDS011;8172;45.018;5.972;2023-02-28T00:51:54;13.50;;;9.73;;
16133;SDS011;8172;45.018;5.972;2023-02-28T00:57:03;13.17;;;9.73;;
16133;SDS011;8172;45.018;5.972;2023-02-28T01:02:09;13.93;;;9.87;;
16133;SDS011;8172;45.018;5.972;2023-02-28T01:07:16;16.13;;;10.57;;
16133;SDS011;8172;45.018;5.972;2023-02-28T01:12:23;15.27;;;10.10;;
16133;SDS011;8172;45.018;5.972;2023-02-28T01:17:32;16.20;;;10.37;;
16133;SDS011;8172;45.018;5.972;2023-02-28T01:22:39;14.87;;;10.50;;
16133;SDS011;8172;45.018;5.972;2023-02-28T01:27:46;13.50;;;10.07;;
16133;SDS011;8172;45.018;5.972;2023-02-28T01:32:53;14.93;;;10.37;;
16133;SDS011;8172;45.018;5.972;2023-02-28T01:38:02;16.30;;;10.20;;
16133;SDS011;8172;45.018;5.972;2023-02-28T01:43:17;14.57;;;10.20;;
16133;SDS011;8172;45.018;5.972;2023-02-28T01:48:24;16.07;;;10.93;;
16133;SDS011;8172;45.018;5.972;2023-02-28T01:53:34;13.97;;;10.23;;
16133;SDS011;8172;45.018;5.972;2023-02-28T01:58:42;18.17;;;10.43;;
16133;SDS011;8172;45.018;5.972;2023-02-28T02:03:50;14.70;;;10.70;;
16133;SDS011;8172;45.018;5.972;2023-02-28T02:09:02;16.43;;;10.67;;
16133;SDS011;8172;45.018;5.972;2023-02-28T02:14:12;15.53;;;10.03;;
16133;SDS011;8172;45.018;5.972;2023-02-28T02:34:48;14.77;;;11.07;;
16133;SDS011;8172;45.018;5.972;2023-02-28T02:45:06;15.10;;;10.27;;
16133;SDS011;8172;45.018;5.972;2023-02-28T02:50:13;16.17;;;9.90;;
16133;SDS011;8172;45.018;5.972;2023-02-28T02:55:21;15.57;;;10.77;;
16133;SDS011;8172;45.018;5.972;2023-02-28T03:00:31;14.67;;;9.97;;
16133;SDS011;8172;45.018;5.972;2023-02-28T03:10:50;14.93;;;10.30;;
16133;SDS011;8172;45.018;5.972;2023-02-28T03:26:19;14.60;;;10.13;;
16133;SDS011;8172;45.018;5.972;2023-02-28T03:31:28;14.63;;;10.40;;
16133;SDS011;8172;45.018;5.972;2023-02-28T03:36:38;15.27;;;10.43;;
16133;SDS011;8172;45.018;5.972;2023-02-28T03:46:59;15.77;;;10.33;;
16133;SDS011;8172;45.018;5.972;2023-02-28T03:52:07;13.93;;;10.43;;
16133;SDS011;8172;45.018;5.972;2023-02-28T03:57:18;15.13;;;11.27;;
16133;SDS011;8172;45.018;5.972;2023-02-28T04:02:23;15.23;;;10.87;;
16133;SDS011;8172;45.018;5.972;2023-02-28T04:07:30;15.30;;;10.77;;
16133;SDS011;8172;45.018;5.972;2023-02-28T04:12:37;14.50;;;10.23;;
16133;SDS011;8172;45.018;5.972;2023-02-28T04:17:44;16.47;;;11.50;;
16133;SDS011;8172;45.018;5.972;2023-02-28T04:22:51;17.17;;;11.83;;
16133;SDS011;8172;45.018;5.972;2023-02-28T04:27:58;16.20;;;10.57;;
16133;SDS011;8172;45.018;5.972;2023-02-28T04:33:05;17.23;;;10.53;;
16133;SDS011;8172;45.018;5.972;2023-02-28T04:38:12;14.60;;;10.20;;
16133;SDS011;8172;45.018;5.972;2023-02-28T04:43:19;15.23;;;10.97;;
16133;SDS011;8172;45.018;5.972;2023-02-28T04:48:28;14.67;;;11.07;;
16133;SDS011;8172;45.018;5.972;2023-02-28T04:53:35;15.53;;;11.00;;
16133;SDS011;8172;45.018;5.972;2023-02-28T04:58:43;15.07;;;10.40;;
16133;SDS011;8172;45.018;5.972;2023-02-28T05:03:51;15.37;;;10.27;;
16133;SDS011;8172;45.018;5.972;2023-02-28T05:09:00;14.17;;;9.73;;
16133;SDS011;8172;45.018;5.972;2023-02-28T05:19:17;14.40;;;10.13;;
16133;SDS011;8172;45.018;5.972;2023-02-28T05:24:24;13.63;;;10.00;;
16133;SDS011;8172;45.018;5.972;2023-02-28T05:29:31;14.67;;;9.60;;
16133;SDS011;8172;45.018;5.972;2023-02-28T05:34:38;13.93;;;9.90;;
16133;SDS011;8172;45.018;5.972;2023-02-28T05:39:45;15.27;;;10.37;;
16133;SDS011;8172;45.018;5.972;2023-02-28T05:44:52;13.23;;;9.63;;
16133;SDS011;8172;45.018;5.972;2023-02-28T05:49:59;13.13;;;9.37;;
16133;SDS011;8172;45.018;5.972;2023-02-28T05:55:06;15.67;;;9.93;;
16133;SDS011;8172;45.018;5.972;2023-02-28T06:00:14;13.37;;;9.40;;
16133;SDS011;8172;45.018;5.972;2023-02-28T06:05:22;12.50;;;9.23;;
16133;SDS011;8172;45.018;5.972;2023-02-28T06:10:29;14.93;;;10.60;;
16133;SDS011;8172;45.018;5.972;2023-02-28T06:15:37;18.67;;;11.43;;
16133;SDS011;8172;45.018;5.972;2023-02-28T06:20:44;18.87;;;12.67;;
16133;SDS011;8172;45.018;5.972;2023-02-28T06:25:54;17.93;;;12.37;;
16133;SDS011;8172;45.018;5.972;2023-02-28T06:36:13;18.90;;;12.50;;
16133;SDS011;8172;45.018;5.972;2023-02-28T06:41:21;21.43;;;12.73;;
16133;SDS011;8172;45.018;5.972;2023-02-28T06:46:29;18.53;;;12.07;;
16133;SDS011;8172;45.018;5.972;2023-02-28T06:51:38;18.17;;;11.87;;
16133;SDS011;8172;45.018;5.972;2023-02-28T06:56:46;17.50;;;12.33;;
16133;SDS011;8172;45.018;5.972;2023-02-28T07:01:54;14.67;;;10.53;;
16133;SDS011;8172;45.018;5.972;2023-02-28T07:07:01;15.33;;;10.97;;
16133;SDS011;8172;45.018;5.972;2023-02-28T07:12:08;15.87;;;11.03;;
16133;SDS011;8172;45.018;5.972;2023-02-28T07:17:14;14.30;;;9.80;;
16133;SDS011;8172;45.018;5.972;2023-02-28T07:22:21;17.50;;;11.00;;
16133;SDS011;8172;45.018;5.972;2023-02-28T07:27:29;18.10;;;10.77;;
16133;SDS011;8172;45.018;5.972;2023-02-28T07:32:37;17.23;;;10.37;;
16133;SDS011;8172;45.018;5.972;2023-02-28T07:37:43;17.33;;;11.30;;
16133;SDS011;8172;45.018;5.972;2023-02-28T07:42:52;15.63;;;10.43;;
16133;SDS011;8172;45.018;5.972;2023-02-28T07:47:59;15.57;;;10.83;;
16133;SDS011;8172;45.018;5.972;2023-02-28T07:53:07;15.13;;;11.17;;
16133;SDS011;8172;45.018;5.972;2023-02-28T07:58:14;18.17;;;11.43;;
16133;SDS011;8172;45.018;5.972;2023-02-28T08:03:21;16.27;;;11.43;;
16133;SDS011;8172;45.018;5.972;2023-02-28T08:08:30;19.37;;;11.53;;
16133;SDS011;8172;45.018;5.972;2023-02-28T08:13:37;15.17;;;10.50;;
16133;SDS011;8172;45.018;5.972;2023-02-28T08:18:44;20.07;;;12.40;;
16133;SDS011;8172;45.018;5.972;2023-02-28T08:23:51;37.60;;;14.67;;
16133;SDS011;8172;45.018;5.972;2023-02-28T08:28:58;51.20;;;14.33;;
16133;SDS011;8172;45.018;5.972;2023-02-28T08:34:06;18.57;;;12.60;;
16133;SDS011;8172;45.018;5.972;2023-02-28T08:39:14;24.27;;;17.43;;
16133;SDS011;8172;45.018;5.972;2023-02-28T08:44:21;40.23;;;14.30;;
16133;SDS011;8172;45.018;5.972;2023-02-28T08:49:28;19.37;;;13.17;;
16133;SDS011;8172;45.018;5.972;2023-02-28T08:54:35;19.77;;;12.87;;
16133;SDS011;8172;45.018;5.972;2023-02-28T08:59:42;22.00;;;13.50;;
16133;SDS011;8172;45.018;5.972;2023-02-28T09:04:49;20.87;;;12.83;;
16133;SDS011;8172;45.018;5.972;2023-02-28T09:09:56;19.67;;;12.83;;
16133;SDS011;8172;45.018;5.972;2023-02-28T09:15:03;19.77;;;12.40;;
16133;SDS011;8172;45.018;5.972;2023-02-28T09:20:11;19.87;;;12.90;;
16133;SDS011;8172;45.018;5.972;2023-02-28T09:25:18;20.03;;;12.80;;
16133;SDS011;8172;45.018;5.972;2023-02-28T09:30:25;20.30;;;12.67;;
16133;SDS011;8172;45.018;5.972;2023-02-28T09:35:32;19.00;;;12.17;;
16133;SDS011;8172;45.018;5.972;2023-02-28T09:40:43;19.10;;;12.20;;
16133;SDS011;8172;45.018;5.972;2023-02-28T09:51:02;20.97;;;12.63;;
16133;SDS011;8172;45.018;5.972;2023-02-28T09:56:11;18.80;;;12.33;;
16133;SDS011;8172;45.018;5.972;2023-02-28T10:06:27;18.63;;;12.53;;
16133;SDS011;8172;45.018;5.972;2023-02-28T10:11:36;17.47;;;11.87;;
16133;SDS011;8172;45.018;5.972;2023-02-28T10:16:46;17.27;;;12.50;;
16133;SDS011;8172;45.018;5.972;2023-02-28T10:21:57;18.00;;;11.70;;
16133;SDS011;8172;45.018;5.972;2023-02-28T10:27:12;19.57;;;12.87;;
16133;SDS011;8172;45.018;5.972;2023-02-28T10:32:16;16.87;;;11.53;;
16133;SDS011;8172;45.018;5.972;2023-02-28T10:37:25;17.50;;;12.00;;
16133;SDS011;8172;45.018;5.972;2023-02-28T10:42:32;18.83;;;11.83;;
16133;SDS011;8172;45.018;5.972;2023-02-28T10:47:48;18.23;;;11.80;;
16133;SDS011;8172;45.018;5.972;2023-02-28T10:52:50;17.80;;;11.37;;
16133;SDS011;8172;45.018;5.972;2023-02-28T10:57:59;16.93;;;11.50;;
16133;SDS011;8172;45.018;5.972;2023-02-28T11:03:11;16.50;;;11.00;;
16133;SDS011;8172;45.018;5.972;2023-02-28T11:08:16;15.37;;;10.50;;
16133;SDS011;8172;45.018;5.972;2023-02-28T11:13:26;14.90;;;9.93;;
16133;SDS011;8172;45.018;5.972;2023-02-28T11:18:36;14.67;;;9.47;;
16133;SDS011;8172;45.018;5.972;2023-02-28T11:23:41;14.50;;;9.90;;
16133;SDS011;8172;45.018;5.972;2023-02-28T11:28:49;15.90;;;10.30;;
16133;SDS011;8172;45.018;5.972;2023-02-28T11:33:59;14.93;;;10.30;;
16133;SDS011;8172;45.018;5.972;2023-02-28T11:39:08;15.33;;;10.53;;
16133;SDS011;8172;45.018;5.972;2023-02-28T11:44:18;18.00;;;12.10;;
16133;SDS011;8172;45.018;5.972;2023-02-28T11:54:35;17.67;;;12.50;;
16133;SDS011;8172;45.018;5.972;2023-02-28T12:30:36;19.60;;;13.20;;
16133;SDS011;8172;45.018;5.972;2023-02-28T12:46:08;17.80;;;12.40;;
16133;SDS011;8172;45.018;5.972;2023-02-28T12:51:15;18.30;;;12.20;;
16133;SDS011;8172;45.018;5.972;2023-02-28T13:11:51;19.37;;;13.37;;
16133;SDS011;8172;45.018;5.972;2023-02-28T13:32:29;19.70;;;14.07;;
16133;SDS011;8172;45.018;5.972;2023-02-28T13:42:48;22.03;;;14.50;;
16133;SDS011;8172;45.018;5.972;2023-02-28T13:47:59;21.20;;;14.67;;
16133;SDS011;8172;45.018;5.972;2023-02-28T14:08:34;22.47;;;14.73;;
16133;SDS011;8172;45.018;5.972;2023-02-28T14:18:51;23.50;;;15.37;;
16133;SDS011;8172;45.018;5.972;2023-02-28T14:39:24;22.63;;;15.83;;
16133;SDS011;8172;45.018;5.972;2023-02-28T14:44:35;24.17;;;15.50;;
16133;SDS011;8172;45.018;5.972;2023-02-28T14:49:43;24.10;;;15.57;;
16133;SDS011;8172;45.018;5.972;2023-02-28T14:54:53;23.43;;;16.77;;
16133;SDS011;8172;45.018;5.972;2023-02-28T15:00:04;23.43;;;15.77;;
16133;SDS011;8172;45.018;5.972;2023-02-28T15:15:35;25.07;;;15.37;;
16133;SDS011;8172;45.018;5.972;2023-02-28T15:20:39;23.27;;;16.23;;
16133;SDS011;8172;45.018;5.972;2023-02-28T15:25:49;25.00;;;16.57;;
16133;SDS011;8172;45.018;5.972;2023-02-28T15:31:00;24.33;;;17.00;;
16133;SDS011;8172;45.018;5.972;2023-02-28T15:36:12;27.47;;;17.30;;
16133;SDS011;8172;45.018;5.972;2023-02-28T15:46:27;26.67;;;17.10;;
16133;SDS011;8172;45.018;5.972;2023-02-28T15:51:36;30.20;;;18.93;;
16133;SDS011;8172;45.018;5.972;2023-02-28T15:56:44;30.60;;;18.73;;
16133;SDS011;8172;45.018;5.972;2023-02-28T16:07:04;27.57;;;18.13;;
16133;SDS011;8172;45.018;5.972;2023-02-28T16:12:12;28.10;;;18.60;;
16133;SDS011;8172;45.018;5.972;2023-02-28T16:17:20;30.30;;;18.37;;
16133;SDS011;8172;45.018;5.972;2023-02-28T16:22:28;27.87;;;17.53;;
16133;SDS011;8172;45.018;5.972;2023-02-28T16:27:36;30.37;;;18.60;;
16133;SDS011;8172;45.018;5.972;2023-02-28T16:32:44;30.30;;;18.73;;
16133;SDS011;8172;45.018;5.972;2023-02-28T16:37:51;31.30;;;19.50;;
16133;SDS011;8172;45.018;5.972;2023-02-28T16:42:59;29.60;;;18.67;;
16133;SDS011;8172;45.018;5.972;2023-02-28T16:53:18;29.40;;;18.63;;
16133;SDS011;8172;45.018;5.972;2023-02-28T16:58:26;30.30;;;19.40;;
16133;SDS011;8172;45.018;5.972;2023-02-28T17:03:33;30.60;;;19.23;;
16133;SDS011;8172;45.018;5.972;2023-02-28T17:08:41;29.53;;;19.13;;
16133;SDS011;8172;45.018;5.972;2023-02-28T17:13:48;29.50;;;18.80;;
16133;SDS011;8172;45.018;5.972;2023-02-28T17:18:57;30.13;;;20.03;;
16133;SDS011;8172;45.018;5.972;2023-02-28T17:24:05;38.03;;;21.97;;
16133;SDS011;8172;45.018;5.972;2023-02-28T17:34:22;43.60;;;25.07;;
16133;SDS011;8172;45.018;5.972;2023-02-28T17:39:29;29.03;;;18.60;;
16133;SDS011;8172;45.018;5.972;2023-02-28T17:44:36;32.20;;;19.17;;
16133;SDS011;8172;45.018;5.972;2023-02-28T17:49:42;81.13;;;40.33;;
16133;SDS011;8172;45.018;5.972;2023-02-28T17:54:50;36.07;;;21.17;;
16133;SDS011;8172;45.018;5.972;2023-02-28T17:59:56;29.77;;;19.33;;
16133;SDS011;8172;45.018;5.972;2023-02-28T18:05:03;31.20;;;21.07;;
16133;SDS011;8172;45.018;5.972;2023-02-28T18:10:13;31.43;;;19.27;;
16133;SDS011;8172;45.018;5.972;2023-02-28T18:15:22;35.53;;;21.70;;
16133;SDS011;8172;45.018;5.972;2023-02-28T18:20:29;33.20;;;21.90;;
16133;SDS011;8172;45.018;5.972;2023-02-28T18:25:36;33.10;;;21.03;;
16133;SDS011;8172;45.018;5.972;2023-02-28T18:30:45;37.83;;;22.50;;
16133;SDS011;8172;45.018;5.972;2023-02-28T18:41:02;38.50;;;22.47;;
16133;SDS011;8172;45.018;5.972;2023-02-28T18:46:12;37.23;;;22.77;;
16133;SDS011;8172;45.018;5.972;2023-02-28T18:51:22;35.30;;;21.20;;
16133;SDS011;8172;45.018;5.972;2023-02-28T18:56:30;37.13;;;22.47;;
16133;SDS011;8172;45.018;5.972;2023-02-28T19:01:37;35.83;;;22.30;;
16133;SDS011;8172;45.018;5.972;2023-02-28T19:06:45;37.07;;;22.27;;
16133;SDS011;8172;45.018;5.972;2023-02-28T19:11:51;40.40;;;24.80;;
16133;SDS011;8172;45.018;5.972;2023-02-28T19:16:58;35.77;;;22.47;;
16133;SDS011;8172;45.018;5.972;2023-02-28T19:22:05;41.80;;;24.00;;
16133;SDS011;8172;45.018;5.972;2023-02-28T19:27:12;42.43;;;24.27;;
16133;SDS011;8172;45.018;5.972;2023-02-28T19:32:21;34.13;;;21.30;;
16133;SDS011;8172;45.018;5.972;2023-02-28T19:37:28;35.43;;;22.00;;
16133;SDS011;8172;45.018;5.972;2023-02-28T19:42:35;34.77;;;21.83;;
16133;SDS011;8172;45.018;5.972;2023-02-28T19:47:43;32.87;;;21.33;;
16133;SDS011;8172;45.018;5.972;2023-02-28T19:52:49;34.03;;;21.17;;
16133;SDS011;8172;45.018;5.972;2023-02-28T19:57:56;32.27;;;21.33;;
16133;SDS011;8172;45.018;5.972;2023-02-28T20:03:03;34.07;;;21.30;;
16133;SDS011;8172;45.018;5.972;2023-02-28T20:08:10;35.37;;;21.43;;
16133;SDS011;8172;45.018;5.972;2023-02-28T20:13:17;33.13;;;21.47;;
16133;SDS011;8172;45.018;5.972;2023-02-28T20:18:26;32.30;;;20.90;;
16133;SDS011;8172;45.018;5.972;2023-02-28T20:23:33;33.83;;;20.80;;
16133;SDS011;8172;45.018;5.972;2023-02-28T20:28:42;35.67;;;22.00;;
16133;SDS011;8172;45.018;5.972;2023-02-28T20:33:49;36.20;;;21.70;;
16133;SDS011;8172;45.018;5.972;2023-02-28T20:38:57;35.80;;;22.10;;
16133;SDS011;8172;45.018;5.972;2023-02-28T20:44:04;39.97;;;22.53;;
16133;SDS011;8172;45.018;5.972;2023-02-28T20:49:11;36.60;;;22.97;;
16133;SDS011;8172;45.018;5.972;2023-02-28T20:54:19;38.07;;;21.33;;
16133;SDS011;8172;45.018;5.972;2023-02-28T20:59:26;34.77;;;21.70;;
16133;SDS011;8172;45.018;5.972;2023-02-28T21:04:34;37.10;;;22.43;;
16133;SDS011;8172;45.018;5.972;2023-02-28T21:09:41;38.97;;;22.07;;
16133;SDS011;8172;45.018;5.972;2023-02-28T21:14:48;36.73;;;22.57;;
16133;SDS011;8172;45.018;5.972;2023-02-28T21:19:55;38.17;;;23.70;;
16133;SDS011;8172;45.018;5.972;2023-02-28T21:25:02;35.63;;;22.47;;
16133;SDS011;8172;45.018;5.972;2023-02-28T21:30:09;36.87;;;23.20;;
16133;SDS011;8172;45.018;5.972;2023-02-28T21:35:16;40.43;;;24.30;;
16133;SDS011;8172;45.018;5.972;2023-02-28T21:40:23;102.70;;;25.10;;
16133;SDS011;8172;45.018;5.972;2023-02-28T21:45:32;44.57;;;23.60;;
16133;SDS011;8172;45.018;5.972;2023-02-28T21:50:39;40.00;;;23.30;;
16133;SDS011;8172;45.018;5.972;2023-02-28T21:55:46;36.67;;;22.27;;
16133;SDS011;8172;45.018;5.972;2023-02-28T22:00:53;84.53;;;25.20;;
16133;SDS011;8172;45.018;5.972;2023-02-28T22:06:00;63.80;;;23.97;;
16133;SDS011;8172;45.018;5.972;2023-02-28T22:11:10;39.67;;;23.93;;
16133;SDS011;8172;45.018;5.972;2023-02-28T22:16:18;57.03;;;24.23;;
16133;SDS011;8172;45.018;5.972;2023-02-28T22:21:26;44.13;;;24.00;;
16133;SDS011;8172;45.018;5.972;2023-02-28T22:26:34;39.83;;;24.17;;
16133;SDS011;8172;45.018;5.972;2023-02-28T22:31:41;37.70;;;22.50;;
16133;SDS011;8172;45.018;5.972;2023-02-28T22:36:48;37.27;;;21.30;;
16133;SDS011;8172;45.018;5.972;2023-02-28T22:41:55;45.00;;;24.00;;
16133;SDS011;8172;45.018;5.972;2023-02-28T22:47:02;40.83;;;23.87;;
16133;SDS011;8172;45.018;5.972;2023-02-28T22:52:09;36.57;;;21.97;;
16133;SDS011;8172;45.018;5.972;2023-02-28T22:57:16;37.73;;;22.27;;
16133;SDS011;8172;45.018;5.972;2023-02-28T23:02:23;40.33;;;23.40;;
16133;SDS011;8172;45.018;5.972;2023-02-28T23:07:30;43.97;;;23.90;;
16133;SDS011;8172;45.018;5.972;2023-02-28T23:12:37;38.13;;;22.77;;
16133;SDS011;8172;45.018;5.972;2023-02-28T23:17:46;37.93;;;21.53;;
16133;SDS011;8172;45.018;5.972;2023-02-28T23:22:54;36.97;;;22.60;;
16133;SDS011;8172;45.018;5.972;2023-02-28T23:28:01;46.67;;;22.57;;
16133;SDS011;8172;45.018;5.972;2023-02-28T23:33:09;39.73;;;23.97;;
16133;SDS011;8172;45.018;5.972;2023-02-28T23:38:16;40.67;;;23.60;;
16133;SDS011;8172;45.018;5.972;2023-02-28T23:43:23;75.27;;;24.00;;
16133;SDS011;8172;45.018;5.972;2023-02-28T23:48:30;46.53;;;24.50;;
16133;SDS011;8172;45.018;5.972;2023-02-28T23:53:38;38.37;;;22.70;;
16133;SDS011;8172;45.018;5.972;2023-02-28T23:58:48;39.47;;;22.70;;
